KDPG/DPG METAR and TAF weather

Enter ICAO airport designator
Station Type Date Time Source
KDPG METAR 2018/10/19 05:55 UTC NOAA

KDPG 190555Z 07001KT 50SM CLR 04/M01 A3032 RMK SLP249 LAST T00371005


Station Type Date Time Source
KDPG Decoded METAR 2018/10/19 05:55 UTC NOAA

Dugway Proving Grounds, UT, United States (KDPG) 40-10N 112-56W 1325M
Oct 19, 2018 - 01:55 AM EDT / 2018.10.19 0555 UTC
Wind: from the ENE (070 degrees) at 1 MPH (1 KT):0
Visibility: 50 mile(s):0
Sky conditions: clear
Temperature: 38.7 F (3.7 C)
Dew Point: 31.1 F (-0.5 C)
Relative Humidity: 73%
Pressure (altimeter): 30.32 in. Hg (1026 hPa)
ob: KDPG 190555Z 07001KT 50SM CLR 04/M01 A3032 RMK SLP249 LAST T00371005
cycle: 6

Station Type Date Time Source
KDPG TAF UTC NOAA

Error!


Example: see airport list